createdAt,value
2023-03-21T00:02:21.851Z,7.61
2023-03-21T00:04:52.606Z,7.61
2023-03-21T00:07:21.382Z,7.59
2023-03-21T00:09:48.986Z,7.59
2023-03-21T00:12:16.669Z,7.56
2023-03-21T00:14:44.315Z,7.56
2023-03-21T00:17:11.972Z,7.55
2023-03-21T00:19:39.532Z,7.56
2023-03-21T00:22:08.864Z,7.55
2023-03-21T00:24:37.409Z,7.56
2023-03-21T00:27:30.233Z,7.56
2023-03-21T00:29:53.571Z,7.58
2023-03-21T00:32:21.871Z,7.60
2023-03-21T00:35:00.369Z,7.61
2023-03-21T00:37:37.115Z,7.63
2023-03-21T00:40:08.606Z,7.63
2023-03-21T00:42:37.054Z,7.63
2023-03-21T00:45:05.493Z,7.64
2023-03-21T00:47:33.128Z,7.63
2023-03-21T00:50:00.687Z,7.62
2023-03-21T00:52:40.268Z,7.61
2023-03-21T00:55:16.203Z,7.61
2023-03-21T00:57:47.485Z,7.60
2023-03-21T01:00:19.185Z,7.60
2023-03-21T01:02:47.204Z,7.60
2023-03-21T01:05:16.979Z,7.61
2023-03-21T01:07:44.550Z,7.62
2023-03-21T01:10:12.277Z,7.63
2023-03-21T01:12:39.858Z,7.64
2023-03-21T01:15:07.800Z,7.64
2023-03-21T01:17:35.375Z,7.65
2023-03-21T01:20:03.705Z,7.66
2023-03-21T01:22:31.290Z,7.65
2023-03-21T01:25:12.047Z,7.65
2023-03-21T01:27:46.491Z,7.66
2023-03-21T01:30:20.236Z,7.65
2023-03-21T01:32:50.485Z,7.64
2023-03-21T01:35:18.658Z,7.61
2023-03-21T01:37:46.236Z,7.59
2023-03-21T01:40:19.861Z,7.56
2023-03-21T01:42:47.707Z,7.53
2023-03-21T01:45:52.816Z,7.52
2023-03-21T01:48:23.228Z,7.50
2023-03-21T01:50:52.059Z,7.49
2023-03-21T01:53:22.090Z,7.49
2023-03-21T01:55:49.753Z,7.48
2023-03-21T01:58:18.856Z,7.45
2023-03-21T02:00:49.634Z,7.45
2023-03-21T02:03:29.532Z,7.44
2023-03-21T02:06:08.443Z,7.43
2023-03-21T02:08:39.701Z,7.43
2023-03-21T02:11:08.308Z,7.43
2023-03-21T02:13:35.998Z,7.43
2023-03-21T02:16:15.703Z,7.42
2023-03-21T02:19:02.216Z,7.42
2023-03-21T02:21:53.336Z,7.42
2023-03-21T02:24:46.284Z,7.40
2023-03-21T02:27:18.541Z,7.39
2023-03-21T02:30:14.918Z,7.38
2023-03-21T02:32:53.664Z,7.38
2023-03-21T02:35:54.352Z,7.38
2023-03-21T02:38:47.087Z,7.37
2023-03-21T02:41:27.446Z,7.36
2023-03-21T02:44:19.816Z,7.34
2023-03-21T02:47:04.594Z,7.32
2023-03-21T02:49:58.687Z,7.29
2023-03-21T02:52:38.755Z,7.26
2023-03-21T02:55:12.719Z,7.25
2023-03-21T02:57:44.112Z,7.23
2023-03-21T03:00:17.878Z,7.22
2023-03-21T03:02:45.636Z,7.20
2023-03-21T03:05:24.337Z,7.19
2023-03-21T03:08:10.793Z,7.18
2023-03-21T03:10:47.382Z,7.18
2023-03-21T03:13:20.692Z,7.17
2023-03-21T03:16:11.975Z,7.16
2023-03-21T03:18:52.494Z,7.15
2023-03-21T03:21:29.029Z,7.13
2023-03-21T03:24:03.670Z,7.12
2023-03-21T03:26:41.277Z,7.10
2023-03-21T03:29:14.869Z,7.09
2023-03-21T03:31:59.738Z,7.08
2023-03-21T03:34:33.523Z,7.06
2023-03-21T03:37:04.324Z,7.05
2023-03-21T03:39:43.913Z,7.05
2023-03-21T03:42:28.577Z,7.04
2023-03-21T03:44:57.504Z,7.04
2023-03-21T03:47:47.712Z,7.03
2023-03-21T03:50:47.426Z,7.03
2023-03-21T03:53:21.053Z,7.02
2023-03-21T03:55:49.841Z,7.01
2023-03-21T03:58:23.919Z,6.98
2023-03-21T04:00:54.679Z,6.97
2023-03-21T04:03:22.746Z,6.95
2023-03-21T04:05:50.376Z,6.94
2023-03-21T04:08:17.984Z,6.93
2023-03-21T04:10:45.545Z,6.93
2023-03-21T04:13:13.098Z,6.93
2023-03-21T04:15:40.736Z,6.94
2023-03-21T04:18:08.310Z,6.94
2023-03-21T04:20:37.450Z,6.95
2023-03-21T04:23:05.944Z,6.95
2023-03-21T04:25:35.048Z,6.95
2023-03-21T04:28:03.594Z,6.96
2023-03-21T04:30:31.178Z,6.95
2023-03-21T04:32:58.736Z,6.95
2023-03-21T04:35:26.901Z,6.95
2023-03-21T04:37:55.280Z,6.95
2023-03-21T04:40:23.079Z,6.95
2023-03-21T04:42:51.301Z,6.95
2023-03-21T04:45:18.925Z,6.96
2023-03-21T04:47:46.572Z,6.96
2023-03-21T04:50:14.362Z,6.96
2023-03-21T04:52:42.006Z,6.97
2023-03-21T04:55:10.441Z,6.96
2023-03-21T04:57:38.412Z,6.96
2023-03-21T05:00:09.385Z,6.95
2023-03-21T05:02:38.275Z,6.94
2023-03-21T05:05:06.822Z,6.94
2023-03-21T05:07:34.386Z,6.94
2023-03-21T05:10:02.654Z,6.94
2023-03-21T05:12:30.421Z,6.94
2023-03-21T05:14:57.989Z,6.95
2023-03-21T05:17:25.762Z,6.98
2023-03-21T05:19:53.309Z,7.03
2023-03-21T05:22:20.867Z,7.07
2023-03-21T05:24:48.428Z,7.13
2023-03-21T05:27:17.844Z,7.17
2023-03-21T05:29:45.433Z,7.22
2023-03-21T05:32:12.992Z,7.25
2023-03-21T05:34:40.674Z,7.26
2023-03-21T05:37:08.242Z,7.24
2023-03-21T05:39:35.802Z,7.21
2023-03-21T05:42:03.434Z,7.20
2023-03-21T05:44:30.972Z,7.18
2023-03-21T05:46:58.542Z,7.16
2023-03-21T05:49:26.143Z,7.15
2023-03-21T05:51:53.673Z,7.16
2023-03-21T05:54:21.275Z,7.21
2023-03-21T05:56:48.888Z,7.31
2023-03-21T05:59:16.509Z,7.45
2023-03-21T06:01:44.096Z,7.64
2023-03-21T06:04:11.721Z,7.83
2023-03-21T06:06:39.386Z,7.94
2023-03-21T06:09:06.979Z,7.96
2023-03-21T06:11:37.044Z,7.96
2023-03-21T06:14:04.580Z,7.94
2023-03-21T06:16:32.133Z,7.89
2023-03-21T06:18:59.676Z,7.84
2023-03-21T06:21:27.289Z,7.84
2023-03-21T06:23:54.886Z,7.85
2023-03-21T06:26:22.586Z,7.87
2023-03-21T06:28:51.193Z,7.90
2023-03-21T06:31:19.167Z,7.94
2023-03-21T06:33:46.739Z,8.04
2023-03-21T06:36:14.394Z,8.17
2023-03-21T06:38:41.953Z,8.26
2023-03-21T06:41:10.502Z,8.27
2023-03-21T06:43:38.092Z,8.33
2023-03-21T06:46:06.105Z,8.45
2023-03-21T06:48:33.699Z,8.52
2023-03-21T06:51:01.249Z,8.61
2023-03-21T06:53:28.828Z,8.62
2023-03-21T06:55:56.997Z,8.59
2023-03-21T06:58:24.644Z,8.55
2023-03-21T07:00:52.651Z,8.52
2023-03-21T07:03:20.218Z,8.49
2023-03-21T07:05:47.854Z,8.48
2023-03-21T07:08:15.432Z,8.49
2023-03-21T07:10:45.556Z,8.45
2023-03-21T07:13:13.735Z,8.37
2023-03-21T07:15:41.778Z,8.31
2023-03-21T07:18:10.052Z,8.28
2023-03-21T07:20:37.627Z,8.26
2023-03-21T07:23:05.309Z,8.22
2023-03-21T07:25:33.544Z,8.16
2023-03-21T07:28:01.125Z,8.09
2023-03-21T07:30:28.744Z,8.03
2023-03-21T07:32:56.277Z,8.01
2023-03-21T07:35:23.827Z,8.00
2023-03-21T07:37:51.387Z,8.00
2023-03-21T07:40:19.111Z,8.01
2023-03-21T07:42:49.022Z,8.04
2023-03-21T07:45:19.300Z,8.10
2023-03-21T07:47:49.117Z,8.21
2023-03-21T07:50:17.435Z,8.30
2023-03-21T07:52:45.129Z,8.40
2023-03-21T07:55:13.134Z,8.49
2023-03-21T07:57:40.720Z,8.64
2023-03-21T08:00:09.334Z,8.76
2023-03-21T08:02:36.928Z,8.91
2023-03-21T08:05:04.876Z,9.03
2023-03-21T08:07:32.578Z,9.14
2023-03-21T08:10:00.153Z,9.24
2023-03-21T08:12:27.718Z,9.31
2023-03-21T08:14:55.271Z,9.37
2023-03-21T08:17:22.863Z,9.39
2023-03-21T08:19:50.436Z,9.44
2023-03-21T08:22:18.014Z,9.46
2023-03-21T08:24:45.676Z,9.42
2023-03-21T08:27:13.224Z,9.32
2023-03-21T08:29:40.830Z,9.28
2023-03-21T08:32:09.035Z,9.27
2023-03-21T08:34:36.681Z,9.28
2023-03-21T08:37:04.292Z,9.32
2023-03-21T08:39:31.918Z,9.41
2023-03-21T08:41:59.478Z,9.54
2023-03-21T08:44:27.099Z,9.57
2023-03-21T08:46:54.662Z,9.58
2023-03-21T08:49:22.220Z,9.65
2023-03-21T08:51:49.744Z,9.80
2023-03-21T08:54:22.185Z,9.88
2023-03-21T08:56:49.753Z,9.97
2023-03-21T08:59:17.476Z,10.04
2023-03-21T09:01:45.132Z,10.08
2023-03-21T09:04:13.036Z,10.14
2023-03-21T09:06:41.127Z,10.29
2023-03-21T09:09:08.711Z,10.41
2023-03-21T09:11:36.275Z,10.43
2023-03-21T09:14:04.494Z,10.40
2023-03-21T09:16:32.207Z,10.29
2023-03-21T09:19:01.427Z,10.18
2023-03-21T09:21:29.160Z,10.15
2023-03-21T09:23:57.533Z,10.13
2023-03-21T09:26:26.776Z,10.09
2023-03-21T09:28:55.687Z,10.10
2023-03-21T09:31:23.490Z,10.12
2023-03-21T09:33:52.981Z,10.15
2023-03-21T09:36:20.633Z,10.20
2023-03-21T09:38:49.243Z,10.27
2023-03-21T09:41:38.896Z,10.38
2023-03-21T09:44:06.690Z,10.51
2023-03-21T09:46:45.791Z,10.52
2023-03-21T09:49:18.235Z,10.49
2023-03-21T09:51:49.461Z,10.58
2023-03-21T09:54:32.860Z,10.63
2023-03-21T09:57:10.918Z,10.68
2023-03-21T09:59:39.559Z,10.82
2023-03-21T10:02:36.504Z,10.88
2023-03-21T10:05:15.177Z,10.78
2023-03-21T10:07:46.848Z,10.72
2023-03-21T10:10:18.955Z,10.77
2023-03-21T10:12:50.206Z,10.84
2023-03-21T10:15:20.347Z,10.90
2023-03-21T10:18:01.631Z,10.93
2023-03-21T10:20:35.059Z,10.97
2023-03-21T10:23:12.472Z,11.06
2023-03-21T10:25:48.638Z,11.10
2023-03-21T10:28:20.974Z,11.15
2023-03-21T10:30:58.857Z,11.14
2023-03-21T10:33:32.250Z,11.10
2023-03-21T10:36:05.425Z,11.04
2023-03-21T10:38:34.209Z,11.04
2023-03-21T10:41:01.780Z,11.10
2023-03-21T10:43:29.358Z,11.15
2023-03-21T10:45:57.347Z,11.22
2023-03-21T10:48:25.505Z,11.27
2023-03-21T10:50:55.319Z,11.28
2023-03-21T10:53:27.518Z,11.27
2023-03-21T10:55:58.990Z,11.18
2023-03-21T10:58:35.150Z,11.09
2023-03-21T11:01:05.197Z,11.07
2023-03-21T11:03:38.946Z,11.09
2023-03-21T11:06:30.156Z,11.25
2023-03-21T11:09:05.689Z,11.37
2023-03-21T11:11:42.138Z,11.44
2023-03-21T11:14:26.143Z,11.60
2023-03-21T11:16:53.772Z,11.62
2023-03-21T11:19:35.800Z,11.52
2023-03-21T11:22:07.870Z,11.42
2023-03-21T11:24:36.211Z,11.45
2023-03-21T11:27:08.584Z,11.53
2023-03-21T11:29:38.560Z,11.52
2023-03-21T11:32:10.573Z,11.35
2023-03-21T11:34:51.561Z,11.24
2023-03-21T11:37:31.290Z,11.37
2023-03-21T11:40:32.674Z,11.66
2023-03-21T11:43:04.866Z,11.76
2023-03-21T11:45:34.936Z,11.59
2023-03-21T11:48:12.641Z,11.45
2023-03-21T11:50:43.376Z,11.40
2023-03-21T11:53:49.684Z,11.42
2023-03-21T11:56:32.413Z,11.39
2023-03-21T11:59:21.952Z,11.39
2023-03-21T12:02:14.346Z,11.32
2023-03-21T12:04:56.977Z,11.28
2023-03-21T12:07:48.762Z,11.23
2023-03-21T12:10:31.386Z,11.14
2023-03-21T12:13:24.209Z,11.01
2023-03-21T12:16:03.763Z,10.89
2023-03-21T12:18:44.193Z,10.84
2023-03-21T12:21:20.764Z,10.82
2023-03-21T12:23:50.974Z,10.81
2023-03-21T12:26:26.396Z,10.81
2023-03-21T12:29:06.726Z,10.70
2023-03-21T12:31:57.090Z,10.56
2023-03-21T12:34:30.572Z,10.42
2023-03-21T12:37:09.435Z,10.38
2023-03-21T12:39:40.395Z,10.32
2023-03-21T12:42:26.984Z,10.32
2023-03-21T12:45:06.288Z,10.32
2023-03-21T12:47:42.733Z,10.28
2023-03-21T12:50:31.529Z,10.30
2023-03-21T12:53:05.422Z,10.18
2023-03-21T12:55:35.236Z,10.05
2023-03-21T12:58:06.793Z,10.01
2023-03-21T13:00:41.924Z,10.06
2023-03-21T13:03:20.980Z,10.12
2023-03-21T13:05:55.407Z,10.16
2023-03-21T13:09:02.074Z,10.27
2023-03-21T13:11:31.248Z,10.39
2023-03-21T13:14:13.729Z,10.45
2023-03-21T13:16:49.608Z,10.54
2023-03-21T13:19:37.279Z,10.50
2023-03-21T13:22:16.544Z,10.42
2023-03-21T13:25:15.572Z,10.43
2023-03-21T13:27:43.263Z,10.58
2023-03-21T13:30:24.383Z,10.90
2023-03-21T13:33:16.449Z,11.30
2023-03-21T13:35:45.671Z,11.67
2023-03-21T13:38:20.458Z,11.98
2023-03-21T13:40:56.945Z,11.83
2023-03-21T13:43:45.588Z,11.49
2023-03-21T13:46:14.318Z,11.09
2023-03-21T13:48:58.569Z,10.79
2023-03-21T13:51:29.641Z,10.59
2023-03-21T13:54:07.283Z,10.50
2023-03-21T13:56:47.147Z,10.43
2023-03-21T13:59:19.172Z,10.36
2023-03-21T14:02:28.331Z,10.31
2023-03-21T14:05:07.031Z,10.19
2023-03-21T14:07:41.222Z,10.10
2023-03-21T14:10:20.129Z,10.06
2023-03-21T14:12:49.081Z,10.12
2023-03-21T14:15:23.373Z,10.21
2023-03-21T14:18:00.338Z,10.30
2023-03-21T14:20:33.665Z,10.31
2023-03-21T14:23:04.231Z,10.44
2023-03-21T14:25:46.747Z,10.62
2023-03-21T14:28:17.102Z,10.75
2023-03-21T14:30:45.203Z,10.79
2023-03-21T14:33:32.382Z,10.71
2023-03-21T14:36:04.839Z,10.59
2023-03-21T14:38:36.306Z,10.48
2023-03-21T14:41:04.924Z,10.36
2023-03-21T14:43:32.597Z,10.23
2023-03-21T14:46:01.196Z,10.13
2023-03-21T14:48:33.924Z,10.08
2023-03-21T14:51:05.021Z,10.09
2023-03-21T14:53:37.887Z,10.12
2023-03-21T14:56:21.835Z,10.07
2023-03-21T14:58:50.033Z,10.00
2023-03-21T15:01:27.765Z,9.96
2023-03-21T15:03:55.689Z,9.93
2023-03-21T15:06:23.272Z,9.87
2023-03-21T15:09:04.286Z,9.81
2023-03-21T15:11:38.338Z,9.75
2023-03-21T15:14:08.517Z,9.71
2023-03-21T15:16:37.053Z,9.70
2023-03-21T15:19:05.203Z,9.70
2023-03-21T15:21:40.252Z,9.67
2023-03-21T15:24:14.862Z,9.65
2023-03-21T15:26:49.720Z,9.64
2023-03-21T15:29:18.377Z,9.63
2023-03-21T15:31:48.011Z,9.61
2023-03-21T15:34:24.671Z,9.61
2023-03-21T15:37:01.501Z,9.59
2023-03-21T15:39:29.527Z,9.57
2023-03-21T15:41:59.096Z,9.54
2023-03-21T15:44:27.594Z,9.51
2023-03-21T15:46:55.691Z,9.49
2023-03-21T15:49:34.410Z,9.49
2023-03-21T15:52:16.549Z,9.48
2023-03-21T15:54:47.378Z,9.48
2023-03-21T15:57:23.909Z,9.46
2023-03-21T15:59:56.549Z,9.44
2023-03-21T16:02:29.605Z,9.43
2023-03-21T16:05:00.272Z,9.41
2023-03-21T16:07:28.534Z,9.40
2023-03-21T16:10:02.069Z,9.39
2023-03-21T16:12:29.756Z,9.37
2023-03-21T16:14:57.294Z,9.35
2023-03-21T16:17:36.003Z,9.32
2023-03-21T16:20:39.231Z,9.28
2023-03-21T16:23:08.924Z,9.24
2023-03-21T16:25:36.667Z,9.21
2023-03-21T16:28:04.793Z,9.17
2023-03-21T16:30:32.373Z,9.13
2023-03-21T16:33:00.060Z,9.10
2023-03-21T16:35:27.839Z,9.05
2023-03-21T16:37:55.462Z,9.02
2023-03-21T16:40:31.183Z,8.98
2023-03-21T16:42:58.949Z,8.94
2023-03-21T16:45:26.838Z,8.91
2023-03-21T16:47:55.054Z,8.87
2023-03-21T16:50:27.894Z,8.81
2023-03-21T16:52:56.696Z,8.77
2023-03-21T16:55:25.016Z,8.71
2023-03-21T16:57:53.607Z,8.65
2023-03-21T17:00:27.077Z,8.61
2023-03-21T17:02:57.149Z,8.57
2023-03-21T17:05:27.964Z,8.53
2023-03-21T17:07:56.344Z,8.48
2023-03-21T17:10:27.560Z,8.43
2023-03-21T17:12:55.388Z,8.37
2023-03-21T17:15:23.051Z,8.33
2023-03-21T17:17:50.647Z,8.28
2023-03-21T17:20:22.671Z,8.25
2023-03-21T17:22:50.461Z,8.22
2023-03-21T17:25:19.228Z,8.19
2023-03-21T17:27:48.078Z,8.16
2023-03-21T17:30:31.949Z,8.13
2023-03-21T17:32:59.981Z,8.10
2023-03-21T17:35:28.515Z,8.06
2023-03-21T17:37:57.819Z,8.04
2023-03-21T17:40:31.638Z,8.01
2023-03-21T17:43:00.108Z,7.97
2023-03-21T17:45:28.200Z,7.94
2023-03-21T17:47:55.854Z,7.90
2023-03-21T17:50:32.528Z,7.88
2023-03-21T17:53:00.188Z,7.86
2023-03-21T17:55:27.865Z,7.84
2023-03-21T17:57:55.756Z,7.82
2023-03-21T18:00:27.468Z,7.79
2023-03-21T18:02:55.335Z,7.79
2023-03-21T18:05:24.350Z,7.79
2023-03-21T18:10:41.788Z,7.77
2023-03-21T18:13:10.259Z,7.77
2023-03-21T18:15:38.545Z,7.77
2023-03-21T18:18:06.245Z,7.77
2023-03-21T18:23:21.982Z,7.75
2023-03-21T18:25:50.450Z,7.74
2023-03-21T18:28:21.143Z,7.72
2023-03-21T18:31:08.576Z,7.69
2023-03-21T18:33:38.873Z,7.66
2023-03-21T18:36:08.726Z,7.63
2023-03-21T18:38:37.109Z,7.60
2023-03-21T18:41:06.762Z,7.57
2023-03-21T18:46:24.191Z,7.49
2023-03-21T18:48:52.006Z,7.45
2023-03-21T18:51:19.590Z,7.42
2023-03-21T18:53:47.495Z,7.40
2023-03-21T18:56:54.756Z,7.37
2023-03-21T18:59:04.568Z,7.36
2023-03-21T19:01:32.371Z,7.35
2023-03-21T19:04:20.438Z,7.35
2023-03-21T19:06:48.499Z,7.35
2023-03-21T19:09:18.101Z,7.35
2023-03-21T19:11:46.804Z,7.35
2023-03-21T19:14:16.671Z,7.35
2023-03-21T19:17:26.687Z,7.35
2023-03-21T19:19:32.102Z,7.34
2023-03-21T19:22:00.035Z,7.34
2023-03-21T19:24:29.039Z,7.33
2023-03-21T19:26:56.749Z,7.33
2023-03-21T19:29:25.185Z,7.33
2023-03-21T19:31:53.124Z,7.34
2023-03-21T19:34:21.169Z,7.33
2023-03-21T19:36:51.813Z,7.33
2023-03-21T19:39:21.039Z,7.32
2023-03-21T19:41:50.014Z,7.33
2023-03-21T19:44:18.664Z,7.32
2023-03-21T19:46:46.396Z,7.32
2023-03-21T19:49:15.167Z,7.32
2023-03-21T19:51:42.771Z,7.32
2023-03-21T19:54:10.402Z,7.31
2023-03-21T19:56:37.993Z,7.32
2023-03-21T19:59:07.030Z,7.31
2023-03-21T20:01:34.622Z,7.31
2023-03-21T20:04:02.282Z,7.30
2023-03-21T20:06:29.857Z,7.28
2023-03-21T20:09:42.965Z,7.27
2023-03-21T20:11:45.007Z,7.24
2023-03-21T20:14:12.579Z,7.21
2023-03-21T20:16:43.324Z,7.18
2023-03-21T20:19:13.146Z,7.16
2023-03-21T20:21:48.550Z,7.14
2023-03-21T20:24:17.400Z,7.11
2023-03-21T20:26:45.421Z,7.09
2023-03-21T20:30:07.076Z,7.07
2023-03-21T20:32:00.789Z,7.05
2023-03-21T20:34:29.094Z,7.04
2023-03-21T20:36:58.276Z,7.02
2023-03-21T20:39:28.560Z,7.00
2023-03-21T20:41:59.407Z,6.99
2023-03-21T20:44:57.184Z,6.97
2023-03-21T20:47:15.081Z,6.95
2023-03-21T20:49:42.693Z,6.94
2023-03-21T20:54:58.080Z,6.92
2023-03-21T20:57:26.442Z,6.91
2023-03-21T20:59:54.948Z,6.90
2023-03-21T21:02:23.507Z,6.89
2023-03-21T21:05:21.533Z,6.85
2023-03-21T21:07:40.262Z,6.83
2023-03-21T21:10:14.228Z,6.81
2023-03-21T21:12:42.348Z,6.78
2023-03-21T21:15:10.227Z,6.76
2023-03-21T21:18:04.083Z,6.73
2023-03-21T21:20:25.965Z,6.71
2023-03-21T21:22:59.605Z,6.68
2023-03-21T21:25:31.435Z,6.66
2023-03-21T21:27:59.110Z,6.62
2023-03-21T21:30:26.683Z,6.60
2023-03-21T21:32:54.255Z,6.55
2023-03-21T21:35:21.849Z,6.50
2023-03-21T21:37:49.572Z,6.47
2023-03-21T21:40:17.166Z,6.45
2023-03-21T21:42:44.831Z,6.43
2023-03-21T21:45:13.237Z,6.42
2023-03-21T21:47:42.955Z,6.41
2023-03-21T21:50:10.859Z,6.40
2023-03-21T21:52:38.478Z,6.39
2023-03-21T21:55:06.393Z,6.38
2023-03-21T21:57:33.990Z,6.37
2023-03-21T22:00:02.268Z,6.36
2023-03-21T22:02:29.911Z,6.37
2023-03-21T22:04:57.517Z,6.37
2023-03-21T22:07:28.546Z,6.36
2023-03-21T22:09:56.199Z,6.37
2023-03-21T22:12:23.776Z,6.37
2023-03-21T22:14:51.494Z,6.37
2023-03-21T22:17:19.049Z,6.36
2023-03-21T22:20:02.565Z,6.36
2023-03-21T22:22:37.031Z,6.35
2023-03-21T22:25:06.061Z,6.34
2023-03-21T22:27:34.160Z,6.31
2023-03-21T22:30:02.273Z,6.28
2023-03-21T22:32:39.484Z,6.25
2023-03-21T22:35:08.045Z,6.24
2023-03-21T22:37:38.189Z,6.22
2023-03-21T22:40:08.364Z,6.22
2023-03-21T22:42:37.053Z,6.23
2023-03-21T22:45:05.782Z,6.24
2023-03-21T22:47:33.632Z,6.25
2023-03-21T22:50:01.232Z,6.25
2023-03-21T22:52:28.844Z,6.25
2023-03-21T22:54:56.411Z,6.23
2023-03-21T22:57:25.366Z,6.22
2023-03-21T22:59:52.939Z,6.22
2023-03-21T23:02:20.607Z,6.21
2023-03-21T23:04:48.278Z,6.21
2023-03-21T23:07:15.912Z,6.20
2023-03-21T23:09:45.007Z,6.19
2023-03-21T23:12:12.597Z,6.18
2023-03-21T23:14:40.197Z,6.17
2023-03-21T23:17:07.813Z,6.16
2023-03-21T23:19:35.481Z,6.16
2023-03-21T23:22:03.095Z,6.14
2023-03-21T23:24:30.715Z,6.13
2023-03-21T23:26:58.289Z,6.11
2023-03-21T23:29:26.457Z,6.09
2023-03-21T23:31:54.128Z,6.04
2023-03-21T23:34:21.944Z,6.02
2023-03-21T23:36:49.528Z,6.01
2023-03-21T23:39:17.099Z,6.02
2023-03-21T23:41:44.718Z,6.06
2023-03-21T23:44:12.283Z,6.12
2023-03-21T23:46:39.894Z,6.16
2023-03-21T23:49:07.574Z,6.21
2023-03-21T23:51:35.188Z,6.25
2023-03-21T23:54:02.758Z,6.29
2023-03-21T23:56:30.365Z,6.31
2023-03-21T23:58:58.088Z,6.31
